sensor_id;sensor_type;location;lat;lon;timestamp;P1;durP1;ratioP1;P2;durP2;ratioP2
68188;SDS011;66299;47.514;19.218;2023-02-28T00:00:35;32.60;;;17.30;;
68188;SDS011;66299;47.514;19.218;2023-02-28T00:03:09;33.53;;;17.52;;
68188;SDS011;66299;47.514;19.218;2023-02-28T00:05:40;37.53;;;17.80;;
68188;SDS011;66299;47.514;19.218;2023-02-28T00:08:10;34.55;;;17.05;;
68188;SDS011;66299;47.514;19.218;2023-02-28T00:10:41;35.47;;;17.08;;
68188;SDS011;66299;47.514;19.218;2023-02-28T00:13:12;31.45;;;17.27;;
68188;SDS011;66299;47.514;19.218;2023-02-28T00:15:41;33.28;;;16.73;;
68188;SDS011;66299;47.514;19.218;2023-02-28T00:18:10;31.77;;;16.90;;
68188;SDS011;66299;47.514;19.218;2023-02-28T00:20:40;29.50;;;16.23;;
68188;SDS011;66299;47.514;19.218;2023-02-28T00:23:12;28.10;;;16.20;;
68188;SDS011;66299;47.514;19.218;2023-02-28T00:25:41;29.60;;;15.50;;
68188;SDS011;66299;47.514;19.218;2023-02-28T00:28:09;32.30;;;16.13;;
68188;SDS011;66299;47.514;19.218;2023-02-28T00:30:39;28.60;;;15.55;;
68188;SDS011;66299;47.514;19.218;2023-02-28T00:33:08;28.67;;;15.68;;
68188;SDS011;66299;47.514;19.218;2023-02-28T00:35:41;30.27;;;15.30;;
68188;SDS011;66299;47.514;19.218;2023-02-28T00:38:15;30.27;;;15.80;;
68188;SDS011;66299;47.514;19.218;2023-02-28T00:40:46;30.48;;;15.25;;
68188;SDS011;66299;47.514;19.218;2023-02-28T00:43:14;29.23;;;15.30;;
68188;SDS011;66299;47.514;19.218;2023-02-28T00:45:45;28.30;;;15.57;;
68188;SDS011;66299;47.514;19.218;2023-02-28T00:48:14;32.83;;;16.30;;
68188;SDS011;66299;47.514;19.218;2023-02-28T00:50:44;30.60;;;16.45;;
68188;SDS011;66299;47.514;19.218;2023-02-28T00:53:12;33.33;;;15.85;;
68188;SDS011;66299;47.514;19.218;2023-02-28T00:55:41;29.27;;;15.90;;
68188;SDS011;66299;47.514;19.218;2023-02-28T00:58:11;31.13;;;16.35;;
68188;SDS011;66299;47.514;19.218;2023-02-28T01:00:40;28.98;;;16.13;;
68188;SDS011;66299;47.514;19.218;2023-02-28T01:03:16;30.30;;;16.65;;
68188;SDS011;66299;47.514;19.218;2023-02-28T01:05:47;28.73;;;16.38;;
68188;SDS011;66299;47.514;19.218;2023-02-28T01:08:19;30.55;;;16.45;;
68188;SDS011;66299;47.514;19.218;2023-02-28T01:10:48;29.30;;;16.08;;
68188;SDS011;66299;47.514;19.218;2023-02-28T01:13:18;29.55;;;16.40;;
68188;SDS011;66299;47.514;19.218;2023-02-28T01:15:51;35.50;;;17.10;;
68188;SDS011;66299;47.514;19.218;2023-02-28T01:18:26;28.88;;;16.17;;
68188;SDS011;66299;47.514;19.218;2023-02-28T01:20:57;29.63;;;16.40;;
68188;SDS011;66299;47.514;19.218;2023-02-28T01:23:25;29.23;;;16.42;;
68188;SDS011;66299;47.514;19.218;2023-02-28T01:25:54;33.72;;;16.55;;
68188;SDS011;66299;47.514;19.218;2023-02-28T01:28:22;29.02;;;16.50;;
68188;SDS011;66299;47.514;19.218;2023-02-28T01:30:51;30.23;;;15.95;;
68188;SDS011;66299;47.514;19.218;2023-02-28T01:33:22;32.53;;;16.92;;
68188;SDS011;66299;47.514;19.218;2023-02-28T01:35:58;30.88;;;16.05;;
68188;SDS011;66299;47.514;19.218;2023-02-28T01:38:27;34.03;;;16.83;;
68188;SDS011;66299;47.514;19.218;2023-02-28T01:41:01;30.38;;;16.88;;
68188;SDS011;66299;47.514;19.218;2023-02-28T01:43:31;28.83;;;16.05;;
68188;SDS011;66299;47.514;19.218;2023-02-28T01:46:19;30.08;;;16.45;;
68188;SDS011;66299;47.514;19.218;2023-02-28T01:48:49;29.63;;;15.60;;
68188;SDS011;66299;47.514;19.218;2023-02-28T01:51:26;31.80;;;16.15;;
68188;SDS011;66299;47.514;19.218;2023-02-28T01:53:59;30.23;;;15.48;;
68188;SDS011;66299;47.514;19.218;2023-02-28T01:56:33;27.75;;;15.25;;
68188;SDS011;66299;47.514;19.218;2023-02-28T01:59:04;29.83;;;15.93;;
68188;SDS011;66299;47.514;19.218;2023-02-28T02:01:34;29.50;;;15.93;;
68188;SDS011;66299;47.514;19.218;2023-02-28T02:04:07;29.73;;;15.30;;
68188;SDS011;66299;47.514;19.218;2023-02-28T02:06:40;30.65;;;16.13;;
68188;SDS011;66299;47.514;19.218;2023-02-28T02:09:14;33.47;;;17.20;;
68188;SDS011;66299;47.514;19.218;2023-02-28T02:11:44;31.23;;;17.05;;
68188;SDS011;66299;47.514;19.218;2023-02-28T02:14:21;31.75;;;16.63;;
68188;SDS011;66299;47.514;19.218;2023-02-28T02:17:04;33.15;;;17.85;;
68188;SDS011;66299;47.514;19.218;2023-02-28T02:19:49;34.67;;;16.98;;
68188;SDS011;66299;47.514;19.218;2023-02-28T02:25:46;33.80;;;17.95;;
68188;SDS011;66299;47.514;19.218;2023-02-28T02:28:26;31.73;;;17.70;;
68188;SDS011;66299;47.514;19.218;2023-02-28T02:31:23;37.45;;;18.70;;
68188;SDS011;66299;47.514;19.218;2023-02-28T02:34:12;37.38;;;18.67;;
68188;SDS011;66299;47.514;19.218;2023-02-28T02:37:02;35.10;;;17.98;;
68188;SDS011;66299;47.514;19.218;2023-02-28T02:39:45;36.92;;;18.20;;
68188;SDS011;66299;47.514;19.218;2023-02-28T02:42:25;35.08;;;18.08;;
68188;SDS011;66299;47.514;19.218;2023-02-28T02:44:59;32.28;;;16.88;;
68188;SDS011;66299;47.514;19.218;2023-02-28T02:47:31;35.75;;;18.30;;
68188;SDS011;66299;47.514;19.218;2023-02-28T02:50:05;33.90;;;17.75;;
68188;SDS011;66299;47.514;19.218;2023-02-28T02:52:42;34.33;;;17.33;;
68188;SDS011;66299;47.514;19.218;2023-02-28T02:55:15;31.90;;;17.27;;
68188;SDS011;66299;47.514;19.218;2023-02-28T02:57:46;31.33;;;17.63;;
68188;SDS011;66299;47.514;19.218;2023-02-28T03:00:18;36.90;;;17.45;;
68188;SDS011;66299;47.514;19.218;2023-02-28T03:02:50;32.28;;;17.15;;
68188;SDS011;66299;47.514;19.218;2023-02-28T03:05:32;32.85;;;17.70;;
68188;SDS011;66299;47.514;19.218;2023-02-28T03:08:08;30.77;;;17.23;;
68188;SDS011;66299;47.514;19.218;2023-02-28T03:10:39;32.92;;;17.58;;
68188;SDS011;66299;47.514;19.218;2023-02-28T03:13:17;31.05;;;16.88;;
68188;SDS011;66299;47.514;19.218;2023-02-28T03:16:12;32.15;;;17.30;;
68188;SDS011;66299;47.514;19.218;2023-02-28T03:19:14;30.40;;;16.98;;
68188;SDS011;66299;47.514;19.218;2023-02-28T03:21:58;34.72;;;17.30;;
68188;SDS011;66299;47.514;19.218;2023-02-28T03:24:38;33.00;;;16.63;;
68188;SDS011;66299;47.514;19.218;2023-02-28T03:27:15;33.85;;;17.10;;
68188;SDS011;66299;47.514;19.218;2023-02-28T03:29:50;32.53;;;16.85;;
68188;SDS011;66299;47.514;19.218;2023-02-28T03:32:27;31.08;;;16.92;;
68188;SDS011;66299;47.514;19.218;2023-02-28T03:35:04;33.35;;;16.67;;
68188;SDS011;66299;47.514;19.218;2023-02-28T03:37:39;33.03;;;17.15;;
68188;SDS011;66299;47.514;19.218;2023-02-28T03:40:13;30.15;;;16.65;;
68188;SDS011;66299;47.514;19.218;2023-02-28T03:42:46;34.47;;;17.05;;
68188;SDS011;66299;47.514;19.218;2023-02-28T03:45:22;35.83;;;16.77;;
68188;SDS011;66299;47.514;19.218;2023-02-28T03:47:57;32.45;;;16.60;;
68188;SDS011;66299;47.514;19.218;2023-02-28T03:50:33;33.28;;;17.23;;
68188;SDS011;66299;47.514;19.218;2023-02-28T03:53:06;30.25;;;16.25;;
68188;SDS011;66299;47.514;19.218;2023-02-28T03:55:39;34.35;;;16.92;;
68188;SDS011;66299;47.514;19.218;2023-02-28T03:58:12;31.70;;;16.20;;
68188;SDS011;66299;47.514;19.218;2023-02-28T04:00:49;30.40;;;15.88;;
68188;SDS011;66299;47.514;19.218;2023-02-28T04:03:23;27.63;;;15.05;;
68188;SDS011;66299;47.514;19.218;2023-02-28T04:05:53;30.70;;;15.20;;
68188;SDS011;66299;47.514;19.218;2023-02-28T04:08:25;29.38;;;15.38;;
68188;SDS011;66299;47.514;19.218;2023-02-28T04:10:57;28.58;;;15.18;;
68188;SDS011;66299;47.514;19.218;2023-02-28T04:13:29;29.60;;;16.45;;
68188;SDS011;66299;47.514;19.218;2023-02-28T04:18:47;34.10;;;16.40;;
68188;SDS011;66299;47.514;19.218;2023-02-28T04:21:15;29.42;;;16.23;;
68188;SDS011;66299;47.514;19.218;2023-02-28T04:23:48;31.50;;;16.92;;
68188;SDS011;66299;47.514;19.218;2023-02-28T04:26:17;33.70;;;16.90;;
68188;SDS011;66299;47.514;19.218;2023-02-28T04:28:45;32.80;;;16.17;;
68188;SDS011;66299;47.514;19.218;2023-02-28T04:31:13;32.33;;;16.30;;
68188;SDS011;66299;47.514;19.218;2023-02-28T04:33:42;30.58;;;15.43;;
68188;SDS011;66299;47.514;19.218;2023-02-28T04:36:11;30.35;;;15.98;;
68188;SDS011;66299;47.514;19.218;2023-02-28T04:38:44;31.38;;;15.90;;
68188;SDS011;66299;47.514;19.218;2023-02-28T04:41:15;30.13;;;15.18;;
68188;SDS011;66299;47.514;19.218;2023-02-28T04:43:44;31.10;;;15.90;;
68188;SDS011;66299;47.514;19.218;2023-02-28T04:46:15;29.02;;;15.18;;
68188;SDS011;66299;47.514;19.218;2023-02-28T04:48:44;26.30;;;14.43;;
68188;SDS011;66299;47.514;19.218;2023-02-28T04:51:13;25.48;;;14.00;;
68188;SDS011;66299;47.514;19.218;2023-02-28T04:53:45;26.70;;;14.25;;
68188;SDS011;66299;47.514;19.218;2023-02-28T04:56:19;26.67;;;13.95;;
68188;SDS011;66299;47.514;19.218;2023-02-28T04:58:48;26.45;;;13.77;;
68188;SDS011;66299;47.514;19.218;2023-02-28T05:01:22;28.30;;;14.25;;
68188;SDS011;66299;47.514;19.218;2023-02-28T05:03:55;26.63;;;14.60;;
68188;SDS011;66299;47.514;19.218;2023-02-28T05:06:25;28.45;;;14.63;;
68188;SDS011;66299;47.514;19.218;2023-02-28T05:08:55;29.33;;;15.30;;
68188;SDS011;66299;47.514;19.218;2023-02-28T05:11:26;29.17;;;15.43;;
68188;SDS011;66299;47.514;19.218;2023-02-28T05:14:01;27.85;;;14.40;;
68188;SDS011;66299;47.514;19.218;2023-02-28T05:16:31;27.92;;;14.48;;
68188;SDS011;66299;47.514;19.218;2023-02-28T05:19:00;30.05;;;15.65;;
68188;SDS011;66299;47.514;19.218;2023-02-28T05:21:30;30.20;;;15.95;;
68188;SDS011;66299;47.514;19.218;2023-02-28T05:24:01;29.45;;;16.10;;
68188;SDS011;66299;47.514;19.218;2023-02-28T05:26:34;30.08;;;16.17;;
68188;SDS011;66299;47.514;19.218;2023-02-28T05:29:03;31.30;;;15.40;;
68188;SDS011;66299;47.514;19.218;2023-02-28T05:31:33;30.42;;;15.90;;
68188;SDS011;66299;47.514;19.218;2023-02-28T05:34:02;28.17;;;15.85;;
68188;SDS011;66299;47.514;19.218;2023-02-28T05:36:32;28.80;;;15.85;;
68188;SDS011;66299;47.514;19.218;2023-02-28T05:39:01;29.63;;;15.93;;
68188;SDS011;66299;47.514;19.218;2023-02-28T05:41:30;29.70;;;15.60;;
68188;SDS011;66299;47.514;19.218;2023-02-28T05:44:00;29.75;;;15.18;;
68188;SDS011;66299;47.514;19.218;2023-02-28T05:46:29;27.80;;;14.75;;
68188;SDS011;66299;47.514;19.218;2023-02-28T05:48:58;29.60;;;14.90;;
68188;SDS011;66299;47.514;19.218;2023-02-28T05:51:28;27.70;;;14.93;;
68188;SDS011;66299;47.514;19.218;2023-02-28T05:54:01;37.42;;;16.10;;
68188;SDS011;66299;47.514;19.218;2023-02-28T05:56:32;39.35;;;18.30;;
68188;SDS011;66299;47.514;19.218;2023-02-28T05:59:08;39.80;;;18.02;;
68188;SDS011;66299;47.514;19.218;2023-02-28T06:01:38;33.90;;;16.33;;
68188;SDS011;66299;47.514;19.218;2023-02-28T06:04:09;32.35;;;16.42;;
68188;SDS011;66299;47.514;19.218;2023-02-28T06:06:57;28.25;;;14.63;;
68188;SDS011;66299;47.514;19.218;2023-02-28T06:09:28;27.33;;;14.88;;
68188;SDS011;66299;47.514;19.218;2023-02-28T06:11:58;26.33;;;14.77;;
68188;SDS011;66299;47.514;19.218;2023-02-28T06:14:27;28.95;;;13.85;;
68188;SDS011;66299;47.514;19.218;2023-02-28T06:16:58;27.08;;;13.07;;
68188;SDS011;66299;47.514;19.218;2023-02-28T06:19:27;27.27;;;13.25;;
68188;SDS011;66299;47.514;19.218;2023-02-28T06:21:56;27.88;;;13.23;;
68188;SDS011;66299;47.514;19.218;2023-02-28T06:24:26;25.10;;;13.02;;
68188;SDS011;66299;47.514;19.218;2023-02-28T06:26:57;24.67;;;12.10;;
68188;SDS011;66299;47.514;19.218;2023-02-28T06:29:25;25.25;;;12.60;;
68188;SDS011;66299;47.514;19.218;2023-02-28T06:31:56;23.85;;;12.00;;
68188;SDS011;66299;47.514;19.218;2023-02-28T06:34:25;27.55;;;12.65;;
68188;SDS011;66299;47.514;19.218;2023-02-28T06:36:53;26.52;;;12.63;;
68188;SDS011;66299;47.514;19.218;2023-02-28T06:39:23;24.17;;;11.98;;
68188;SDS011;66299;47.514;19.218;2023-02-28T06:41:51;23.98;;;11.93;;
68188;SDS011;66299;47.514;19.218;2023-02-28T06:44:22;23.30;;;11.68;;
68188;SDS011;66299;47.514;19.218;2023-02-28T06:46:55;24.23;;;11.73;;
68188;SDS011;66299;47.514;19.218;2023-02-28T06:49:24;25.13;;;12.32;;
68188;SDS011;66299;47.514;19.218;2023-02-28T06:54:27;28.05;;;11.80;;
68188;SDS011;66299;47.514;19.218;2023-02-28T06:56:57;26.48;;;11.35;;
68188;SDS011;66299;47.514;19.218;2023-02-28T06:59:27;26.95;;;11.65;;
68188;SDS011;66299;47.514;19.218;2023-02-28T07:01:57;23.50;;;11.45;;
68188;SDS011;66299;47.514;19.218;2023-02-28T07:04:27;28.02;;;11.13;;
68188;SDS011;66299;47.514;19.218;2023-02-28T07:06:56;23.98;;;11.60;;
68188;SDS011;66299;47.514;19.218;2023-02-28T07:09:30;24.90;;;11.32;;
68188;SDS011;66299;47.514;19.218;2023-02-28T07:12:01;22.23;;;10.45;;
68188;SDS011;66299;47.514;19.218;2023-02-28T07:17:01;25.75;;;11.30;;
68188;SDS011;66299;47.514;19.218;2023-02-28T07:19:30;22.00;;;10.73;;
68188;SDS011;66299;47.514;19.218;2023-02-28T07:21:59;24.27;;;11.07;;
68188;SDS011;66299;47.514;19.218;2023-02-28T07:24:29;23.63;;;10.57;;
68188;SDS011;66299;47.514;19.218;2023-02-28T07:26:58;26.23;;;11.13;;
68188;SDS011;66299;47.514;19.218;2023-02-28T07:29:30;26.88;;;10.88;;
68188;SDS011;66299;47.514;19.218;2023-02-28T07:32:00;25.85;;;11.45;;
68188;SDS011;66299;47.514;19.218;2023-02-28T07:34:29;25.10;;;10.23;;
68188;SDS011;66299;47.514;19.218;2023-02-28T07:36:59;20.33;;;10.23;;
68188;SDS011;66299;47.514;19.218;2023-02-28T07:39:30;25.35;;;10.63;;
68188;SDS011;66299;47.514;19.218;2023-02-28T07:41:59;20.50;;;9.68;;
68188;SDS011;66299;47.514;19.218;2023-02-28T07:44:30;22.58;;;9.93;;
68188;SDS011;66299;47.514;19.218;2023-02-28T07:47:01;21.15;;;10.52;;
68188;SDS011;66299;47.514;19.218;2023-02-28T07:49:30;22.38;;;10.85;;
68188;SDS011;66299;47.514;19.218;2023-02-28T07:51:59;24.02;;;11.45;;
68188;SDS011;66299;47.514;19.218;2023-02-28T07:54:29;23.08;;;9.70;;
68188;SDS011;66299;47.514;19.218;2023-02-28T07:56:58;24.17;;;10.27;;
68188;SDS011;66299;47.514;19.218;2023-02-28T07:59:30;21.63;;;9.65;;
68188;SDS011;66299;47.514;19.218;2023-02-28T08:01:59;22.42;;;9.20;;
68188;SDS011;66299;47.514;19.218;2023-02-28T08:04:31;19.20;;;9.68;;
68188;SDS011;66299;47.514;19.218;2023-02-28T08:07:02;18.10;;;8.52;;
68188;SDS011;66299;47.514;19.218;2023-02-28T08:09:33;19.00;;;9.30;;
68188;SDS011;66299;47.514;19.218;2023-02-28T08:12:02;22.10;;;8.80;;
68188;SDS011;66299;47.514;19.218;2023-02-28T08:14:31;21.88;;;9.70;;
68188;SDS011;66299;47.514;19.218;2023-02-28T08:17:01;19.05;;;8.85;;
68188;SDS011;66299;47.514;19.218;2023-02-28T08:19:30;21.13;;;9.25;;
68188;SDS011;66299;47.514;19.218;2023-02-28T08:21:59;19.73;;;8.80;;
68188;SDS011;66299;47.514;19.218;2023-02-28T08:24:29;21.42;;;8.60;;
68188;SDS011;66299;47.514;19.218;2023-02-28T08:26:58;17.00;;;7.57;;
68188;SDS011;66299;47.514;19.218;2023-02-28T08:29:27;18.23;;;8.18;;
68188;SDS011;66299;47.514;19.218;2023-02-28T08:31:58;16.58;;;7.88;;
68188;SDS011;66299;47.514;19.218;2023-02-28T08:34:28;20.00;;;8.10;;
68188;SDS011;66299;47.514;19.218;2023-02-28T08:36:57;18.60;;;8.27;;
68188;SDS011;66299;47.514;19.218;2023-02-28T08:39:26;18.95;;;8.23;;
68188;SDS011;66299;47.514;19.218;2023-02-28T08:41:56;17.98;;;8.18;;
68188;SDS011;66299;47.514;19.218;2023-02-28T08:44:34;18.20;;;8.18;;
68188;SDS011;66299;47.514;19.218;2023-02-28T08:47:02;18.40;;;8.10;;
68188;SDS011;66299;47.514;19.218;2023-02-28T08:49:36;18.55;;;7.97;;
68188;SDS011;66299;47.514;19.218;2023-02-28T08:52:06;18.10;;;8.35;;
68188;SDS011;66299;47.514;19.218;2023-02-28T08:54:37;18.63;;;8.02;;
68188;SDS011;66299;47.514;19.218;2023-02-28T08:57:06;17.38;;;7.70;;
68188;SDS011;66299;47.514;19.218;2023-02-28T08:59:35;14.93;;;7.70;;
68188;SDS011;66299;47.514;19.218;2023-02-28T09:02:04;14.73;;;6.80;;
68188;SDS011;66299;47.514;19.218;2023-02-28T09:04:34;17.92;;;7.43;;
68188;SDS011;66299;47.514;19.218;2023-02-28T09:07:02;16.27;;;7.47;;
68188;SDS011;66299;47.514;19.218;2023-02-28T09:09:31;19.65;;;7.60;;
68188;SDS011;66299;47.514;19.218;2023-02-28T09:12:03;16.38;;;7.72;;
68188;SDS011;66299;47.514;19.218;2023-02-28T09:14:33;18.52;;;7.70;;
68188;SDS011;66299;47.514;19.218;2023-02-28T09:17:04;16.45;;;7.45;;
68188;SDS011;66299;47.514;19.218;2023-02-28T09:19:33;15.73;;;6.57;;
68188;SDS011;66299;47.514;19.218;2023-02-28T09:22:07;16.17;;;7.57;;
68188;SDS011;66299;47.514;19.218;2023-02-28T09:24:37;17.90;;;7.15;;
68188;SDS011;66299;47.514;19.218;2023-02-28T09:27:07;18.80;;;7.53;;
68188;SDS011;66299;47.514;19.218;2023-02-28T09:29:37;15.70;;;7.38;;
68188;SDS011;66299;47.514;19.218;2023-02-28T09:32:06;18.30;;;7.10;;
68188;SDS011;66299;47.514;19.218;2023-02-28T09:34:36;15.65;;;7.15;;
68188;SDS011;66299;47.514;19.218;2023-02-28T09:37:06;17.35;;;7.85;;
68188;SDS011;66299;47.514;19.218;2023-02-28T09:39:36;17.55;;;7.63;;
68188;SDS011;66299;47.514;19.218;2023-02-28T09:42:05;15.85;;;6.80;;
68188;SDS011;66299;47.514;19.218;2023-02-28T09:44:44;15.82;;;7.00;;
68188;SDS011;66299;47.514;19.218;2023-02-28T09:47:17;15.48;;;7.07;;
68188;SDS011;66299;47.514;19.218;2023-02-28T09:49:56;14.20;;;6.90;;
68188;SDS011;66299;47.514;19.218;2023-02-28T09:52:31;16.65;;;7.43;;
68188;SDS011;66299;47.514;19.218;2023-02-28T09:55:10;16.00;;;6.82;;
68188;SDS011;66299;47.514;19.218;2023-02-28T09:57:47;16.65;;;6.60;;
68188;SDS011;66299;47.514;19.218;2023-02-28T10:00:19;15.70;;;7.07;;
68188;SDS011;66299;47.514;19.218;2023-02-28T10:02:56;20.73;;;7.07;;
68188;SDS011;66299;47.514;19.218;2023-02-28T10:05:36;18.80;;;8.15;;
68188;SDS011;66299;47.514;19.218;2023-02-28T10:08:12;19.08;;;8.60;;
68188;SDS011;66299;47.514;19.218;2023-02-28T10:10:45;17.15;;;7.15;;
68188;SDS011;66299;47.514;19.218;2023-02-28T10:13:20;13.25;;;6.38;;
68188;SDS011;66299;47.514;19.218;2023-02-28T10:15:54;12.00;;;5.82;;
68188;SDS011;66299;47.514;19.218;2023-02-28T10:18:29;14.68;;;5.90;;
68188;SDS011;66299;47.514;19.218;2023-02-28T10:21:10;13.95;;;6.13;;
68188;SDS011;66299;47.514;19.218;2023-02-28T10:23:47;12.73;;;5.82;;
68188;SDS011;66299;47.514;19.218;2023-02-28T10:26:17;14.50;;;5.90;;
68188;SDS011;66299;47.514;19.218;2023-02-28T10:28:46;14.10;;;6.22;;
68188;SDS011;66299;47.514;19.218;2023-02-28T10:31:20;16.20;;;6.10;;
68188;SDS011;66299;47.514;19.218;2023-02-28T10:33:52;15.18;;;6.18;;
68188;SDS011;66299;47.514;19.218;2023-02-28T10:36:22;15.75;;;5.57;;
68188;SDS011;66299;47.514;19.218;2023-02-28T10:38:52;15.85;;;6.15;;
68188;SDS011;66299;47.514;19.218;2023-02-28T10:41:28;16.15;;;5.95;;
68188;SDS011;66299;47.514;19.218;2023-02-28T10:44:12;14.07;;;5.82;;
68188;SDS011;66299;47.514;19.218;2023-02-28T10:46:43;13.88;;;5.78;;
68188;SDS011;66299;47.514;19.218;2023-02-28T10:49:14;12.32;;;5.75;;
68188;SDS011;66299;47.514;19.218;2023-02-28T10:51:51;16.42;;;5.45;;
68188;SDS011;66299;47.514;19.218;2023-02-28T10:54:22;15.10;;;5.85;;
68188;SDS011;66299;47.514;19.218;2023-02-28T10:57:05;16.17;;;6.32;;
68188;SDS011;66299;47.514;19.218;2023-02-28T10:59:36;12.90;;;5.90;;
68188;SDS011;66299;47.514;19.218;2023-02-28T11:05:00;17.80;;;6.10;;
68188;SDS011;66299;47.514;19.218;2023-02-28T11:07:30;14.18;;;5.68;;
68188;SDS011;66299;47.514;19.218;2023-02-28T11:10:18;14.85;;;5.70;;
68188;SDS011;66299;47.514;19.218;2023-02-28T11:12:49;18.55;;;5.70;;
68188;SDS011;66299;47.514;19.218;2023-02-28T11:15:27;14.32;;;5.68;;
68188;SDS011;66299;47.514;19.218;2023-02-28T11:17:58;14.63;;;5.83;;
68188;SDS011;66299;47.514;19.218;2023-02-28T11:20:29;14.85;;;5.63;;
68188;SDS011;66299;47.514;19.218;2023-02-28T11:23:10;12.32;;;5.60;;
68188;SDS011;66299;47.514;19.218;2023-02-28T11:25:46;12.90;;;5.20;;
68188;SDS011;66299;47.514;19.218;2023-02-28T11:28:25;11.63;;;5.38;;
68188;SDS011;66299;47.514;19.218;2023-02-28T11:31:02;13.20;;;5.70;;
68188;SDS011;66299;47.514;19.218;2023-02-28T11:33:40;13.43;;;5.53;;
68188;SDS011;66299;47.514;19.218;2023-02-28T11:36:14;12.82;;;5.82;;
68188;SDS011;66299;47.514;19.218;2023-02-28T11:38:48;16.30;;;6.18;;
68188;SDS011;66299;47.514;19.218;2023-02-28T11:41:24;13.80;;;6.00;;
68188;SDS011;66299;47.514;19.218;2023-02-28T11:44:15;15.15;;;5.90;;
68188;SDS011;66299;47.514;19.218;2023-02-28T11:46:58;16.75;;;6.30;;
68188;SDS011;66299;47.514;19.218;2023-02-28T11:49:31;13.63;;;6.13;;
68188;SDS011;66299;47.514;19.218;2023-02-28T11:52:05;16.10;;;6.45;;
68188;SDS011;66299;47.514;19.218;2023-02-28T11:55:00;13.43;;;5.88;;
68188;SDS011;66299;47.514;19.218;2023-02-28T11:57:52;13.35;;;6.20;;
68188;SDS011;66299;47.514;19.218;2023-02-28T12:00:47;15.27;;;6.45;;
68188;SDS011;66299;47.514;19.218;2023-02-28T12:03:31;14.57;;;6.65;;
68188;SDS011;66299;47.514;19.218;2023-02-28T12:06:11;15.10;;;6.60;;
68188;SDS011;66299;47.514;19.218;2023-02-28T12:08:48;14.60;;;6.22;;
68188;SDS011;66299;47.514;19.218;2023-02-28T12:11:30;15.45;;;6.57;;
68188;SDS011;66299;47.514;19.218;2023-02-28T12:17:16;14.00;;;6.25;;
68188;SDS011;66299;47.514;19.218;2023-02-28T12:19:58;13.07;;;6.25;;
68188;SDS011;66299;47.514;19.218;2023-02-28T12:22:37;14.15;;;6.40;;
68188;SDS011;66299;47.514;19.218;2023-02-28T12:25:22;15.05;;;6.30;;
68188;SDS011;66299;47.514;19.218;2023-02-28T12:28:09;13.50;;;6.82;;
68188;SDS011;66299;47.514;19.218;2023-02-28T12:30:41;14.60;;;6.40;;
68188;SDS011;66299;47.514;19.218;2023-02-28T12:33:17;16.13;;;6.10;;
68188;SDS011;66299;47.514;19.218;2023-02-28T12:35:52;12.38;;;5.85;;
68188;SDS011;66299;47.514;19.218;2023-02-28T12:38:24;14.57;;;6.65;;
68188;SDS011;66299;47.514;19.218;2023-02-28T12:43:30;13.45;;;5.82;;
68188;SDS011;66299;47.514;19.218;2023-02-28T12:46:03;14.57;;;6.65;;
68188;SDS011;66299;47.514;19.218;2023-02-28T12:48:39;13.15;;;6.28;;
68188;SDS011;66299;47.514;19.218;2023-02-28T12:51:10;14.57;;;6.20;;
68188;SDS011;66299;47.514;19.218;2023-02-28T12:53:44;14.27;;;6.40;;
68188;SDS011;66299;47.514;19.218;2023-02-28T12:56:24;12.55;;;6.30;;
68188;SDS011;66299;47.514;19.218;2023-02-28T12:59:05;13.63;;;5.55;;
68188;SDS011;66299;47.514;19.218;2023-02-28T13:04:42;15.00;;;5.57;;
68188;SDS011;66299;47.514;19.218;2023-02-28T13:07:39;15.68;;;6.63;;
68188;SDS011;66299;47.514;19.218;2023-02-28T13:10:37;14.07;;;5.97;;
68188;SDS011;66299;47.514;19.218;2023-02-28T13:13:11;14.50;;;6.40;;
68188;SDS011;66299;47.514;19.218;2023-02-28T13:15:58;15.50;;;6.78;;
68188;SDS011;66299;47.514;19.218;2023-02-28T13:18:32;14.15;;;6.60;;
68188;SDS011;66299;47.514;19.218;2023-02-28T13:21:04;15.38;;;6.43;;
68188;SDS011;66299;47.514;19.218;2023-02-28T13:23:56;12.85;;;6.13;;
68188;SDS011;66299;47.514;19.218;2023-02-28T13:29:36;14.80;;;6.55;;
68188;SDS011;66299;47.514;19.218;2023-02-28T13:35:17;15.98;;;6.32;;
68188;SDS011;66299;47.514;19.218;2023-02-28T13:38:12;13.88;;;6.57;;
68188;SDS011;66299;47.514;19.218;2023-02-28T13:40:45;17.55;;;6.78;;
68188;SDS011;66299;47.514;19.218;2023-02-28T13:43:16;14.02;;;6.50;;
68188;SDS011;66299;47.514;19.218;2023-02-28T13:48:48;16.65;;;6.90;;
68188;SDS011;66299;47.514;19.218;2023-02-28T13:51:38;16.35;;;6.78;;
68188;SDS011;66299;47.514;19.218;2023-02-28T13:54:14;18.60;;;6.85;;
68188;SDS011;66299;47.514;19.218;2023-02-28T13:56:50;16.67;;;6.80;;
68188;SDS011;66299;47.514;19.218;2023-02-28T13:59:30;14.63;;;6.93;;
68188;SDS011;66299;47.514;19.218;2023-02-28T14:02:12;15.02;;;7.15;;
68188;SDS011;66299;47.514;19.218;2023-02-28T14:05:00;15.98;;;7.00;;
68188;SDS011;66299;47.514;19.218;2023-02-28T14:07:36;19.50;;;7.07;;
68188;SDS011;66299;47.514;19.218;2023-02-28T14:10:21;17.55;;;7.13;;
68188;SDS011;66299;47.514;19.218;2023-02-28T14:12:58;15.68;;;6.68;;
68188;SDS011;66299;47.514;19.218;2023-02-28T14:15:49;15.85;;;6.82;;
68188;SDS011;66299;47.514;19.218;2023-02-28T14:18:24;16.05;;;7.03;;
68188;SDS011;66299;47.514;19.218;2023-02-28T14:21:08;18.17;;;7.40;;
68188;SDS011;66299;47.514;19.218;2023-02-28T14:23:54;17.40;;;8.25;;
68188;SDS011;66299;47.514;19.218;2023-02-28T14:30:03;17.25;;;8.30;;
68188;SDS011;66299;47.514;19.218;2023-02-28T14:32:45;16.95;;;8.07;;
68188;SDS011;66299;47.514;19.218;2023-02-28T14:35:22;15.63;;;7.75;;
68188;SDS011;66299;47.514;19.218;2023-02-28T14:38:04;15.25;;;7.68;;
68188;SDS011;66299;47.514;19.218;2023-02-28T14:40:37;20.08;;;8.43;;
68188;SDS011;66299;47.514;19.218;2023-02-28T14:43:17;18.77;;;8.55;;
68188;SDS011;66299;47.514;19.218;2023-02-28T14:45:50;18.35;;;7.88;;
68188;SDS011;66299;47.514;19.218;2023-02-28T14:48:20;17.05;;;7.25;;
68188;SDS011;66299;47.514;19.218;2023-02-28T14:50:53;18.30;;;7.57;;
68188;SDS011;66299;47.514;19.218;2023-02-28T14:53:25;17.95;;;7.90;;
68188;SDS011;66299;47.514;19.218;2023-02-28T14:55:57;18.02;;;7.20;;
68188;SDS011;66299;47.514;19.218;2023-02-28T15:00:57;14.73;;;7.50;;
68188;SDS011;66299;47.514;19.218;2023-02-28T15:03:32;19.50;;;7.32;;
68188;SDS011;66299;47.514;19.218;2023-02-28T15:06:02;17.67;;;7.43;;
68188;SDS011;66299;47.514;19.218;2023-02-28T15:08:32;16.48;;;7.38;;
68188;SDS011;66299;47.514;19.218;2023-02-28T15:11:07;16.73;;;7.60;;
68188;SDS011;66299;47.514;19.218;2023-02-28T15:13:42;18.30;;;7.80;;
68188;SDS011;66299;47.514;19.218;2023-02-28T15:18:45;18.50;;;8.52;;
68188;SDS011;66299;47.514;19.218;2023-02-28T15:21:18;17.05;;;7.93;;
68188;SDS011;66299;47.514;19.218;2023-02-28T15:23:49;17.15;;;8.13;;
68188;SDS011;66299;47.514;19.218;2023-02-28T15:26:23;20.85;;;9.40;;
68188;SDS011;66299;47.514;19.218;2023-02-28T15:28:59;17.10;;;7.93;;
68188;SDS011;66299;47.514;19.218;2023-02-28T15:31:31;17.60;;;8.20;;
68188;SDS011;66299;47.514;19.218;2023-02-28T15:34:21;22.33;;;9.07;;